Weather observations for the past three days for
Rochester, Rochester International Airport
Metric (Imperial)
Date Time (cdt) Wind (kph) Vis. (km) Weather Sky Cond. Temperature (ºC) Relative Humidity Wind Chill (°C) Heat Index (°C) Pressure Precipitation (cm)
Air Dwpt 6 hour altimeter (cm) sea level (mb) 1 hr 3 hr 6 hr
Max. Min.
10 08:54 NW 17 14.48 A Few Clouds FEW095 9.4 -2.2 44% 7 76.48 1020.0
10 07:54 W 13 14.48 A Few Clouds FEW095 8.3 -2.8 46% 6 76.43 1019.2
10 06:54 W 13 14.48 Fair CLR 5.6 -3.3 6.1 2.8 53% 3 76.38 1018.8
10 05:54 W 17 14.48 Fair CLR 3.3 -3.9 60% -0 76.38 1018.7
10 04:54 W 13 16.09 Fair CLR 3.9 -3.9 57% 1 76.3 1017.9
10 03:54 NW 11 16.09 Fair CLR 3.9 -3.9 57% 1 76.28 1017.3
10 02:54 W 11 16.09 Fair CLR 5 -3.9 53% 3 76.23 1016.5
10 01:54 NW 9 16.09 Fair CLR 5 -3.9 53% 3 76.23 1016.6
10 00:54 NW 17 16.09 Fair CLR 6.1 -3.9 14.4 6.1 49% 3 76.2 1016.2
09 23:54 NW 15 16.09 Fair CLR 7.2 -4.4 44% 5 76.12 1015.3
09 22:54 NW 13 16.09 Fair CLR 7.8 -5 40% 6 76.07 1014.8
09 21:54 NW 11 16.09 Fair CLR 8.9 -5 37% 7 76.05 1014.1
09 20:54 N 15 16.09 Fair CLR 10 -5 35% 8 75.95 1012.9
09 19:54 NW 26 14.48 Fair CLR 13.3 -6.1 26% 75.87 1011.7
09 18:54 N 26 G 44 16.09 Fair CLR 14.4 -6.1 16.7 14.4 24% 75.82 1010.9
09 17:54 N 28 14.48 Fair CLR 15.6 -5.6 23% 75.74 1010.1
09 16:54 N 30 14.48 Fair CLR 16.1 -5 23% 75.69 1009.5
09 15:54 NW 30 G 48 14.48 Fair CLR 16.1 -5.6 22% 75.67 1009.0
09 14:54 N 37 G 57 14.48 Fair and Breezy CLR 16.7 -3.9 24% 75.64 1008.5
09 13:54 NW 43 G 57 12.87 Fair and Windy CLR 16.1 -3.3 26% 75.59 1007.9
09 12:54 N 31 G 52 12.87 A Few Clouds FEW060 15 -1.1 15.6 9.4 33% 75.57 1007.6
09 11:54 N 31 G 46 14.48 A Few Clouds FEW046 15 2.2 42% 75.54 1007.1
09 10:54 N 33 G 48 14.48 Mostly Cloudy and Breezy SCT039 BKN048 13.3 3.3 51% 75.51 1006.6
09 09:54 NW 30 12.87 Mostly Cloudy BKN036 13.3 4.4 55% 75.44 1005.6
09 08:54 NW 28 G 35 12.87 Mostly Cloudy FEW032 SCT075 BKN090 12.8 5 59% 75.36 1004.7
09 07:54 W 11 12.87 Light Rain FEW049 BKN075 OVC090 9.4 1.7 59% 8 75.34 1004.3
09 06:54 NW 17 12.87 Overcast OVC090 9.4 -0.6 11.7 6.7 50% 7 75.34 1004.2
09 05:54 NW 20 G 35 14.48 Overcast OVC100 8.9 -1.1 50% 6 75.23 1003.0
09 04:54 SW 17 14.48 A Few Clouds FEW100 7.2 -1.1 56% 5 75.18 1002.3
09 03:54 SW 15 14.48 Fair CLR 8.3 -2.2 48% 6 75.21 1002.6
09 02:54 SW 17 14.48 Fair CLR 8.9 -1.7 48% 7 75.21 1002.5
09 01:54 W 11 14.48 Fair CLR 10 -1.7 44% 9 75.26 1003.1
09 00:54 NW 15 14.48 Fair CLR 11.7 -1.7 20 11.7 40% 75.26 1003.3
08 23:54 W 17 11.27 Fair CLR 12.8 -1.7 37% 75.29 1003.3
08 22:54 NW 24 14.48 Fair CLR 15.6 -2.2 30% 75.26 1003.1
08 21:54 W 15 8.05 Fair CLR 13.9 -1.1 36% 75.23 1002.9
08 20:54 NW 19 16.09 Partly Cloudy SCT110 17.2 -1.7 28% 75.18 1002.2
08 19:54 W 17 12.87 A Few Clouds FEW095 FEW120 19.4 -1.1 25% 75.18 1002.2
08 18:54 W 19 16.09 Partly Cloudy SCT120 20 -2.8 22.2 18.3 21% 75.16 1002.3
08 17:54 W 30 12.87 Mostly Cloudy BKN100 21.1 -2.2 21% 75.21 1002.9
08 16:54 W 28 G 41 16.09 A Few Clouds FEW110 20.6 -3.3 20% 75.26 1003.4
08 15:54 NW 24 16.09 Partly Cloudy SCT110 20.6 -4.4 18% 75.31 1004.2
08 14:54 NW 30 G 46 11.27 Partly Cloudy SCT120 21.7 -5 16% 75.36 1005.0
08 13:54 W 28 G 43 16.09 Partly Cloudy SCT110 20.6 -5 17% 75.41 1005.8
08 12:54 W 35 G 48 16.09 Partly Cloudy and Breezy SCT110 20 -5 20 5 18% 75.51 1007.0
08 11:54 W 33 G 48 16.09 Partly Cloudy and Breezy SCT100 18.9 -3.9 21% 75.59 1008.0
08 10:54 SW 28 16.09 Fair CLR 17.2 -5 22% 75.57 1007.8
08 09:54 SW 28 16.09 Fair CLR 15 -5.6 24% 75.64 1008.6
08 08:54 S 22 16.09 Fair CLR 12.2 -5 30% 75.67 1008.9
08 07:54 S 26 16.09 Fair CLR 9.4 -4.4 38% 6 75.67 1009.3
08 06:54 S 17 11.27 Fair CLR 5 -5.6 5 2.2 47% 2 75.67 1009.4
08 05:54 S 17 12.87 Fair CLR 3.3 -6.1 51% -0 75.67 1009.4
08 04:54 S 17 14.48 Fair CLR 3.3 -6.1 51% -0 75.69 1009.6
08 03:54 S 15 14.48 Fair CLR 3.9 -6.7 46% 1 75.69 1009.8
08 02:54 S 17 14.48 Fair CLR 2.2 -6.1 55% -2 75.74 1010.4
08 01:54 S 15 14.48 Fair CLR 2.2 -5 59% -1 75.74 1010.6
08 00:54 S 13 14.48 Fair CLR 3.3 -5.6 13.3 3.3 52% 0 75.79 1011.0
07 23:54 S 11 14.48 Fair CLR 5 -6.7 43% 3 75.79 1011.2
07 22:54 SE 7 14.48 Fair CLR 6.7 -7.8 35% 6 75.82 1011.3
07 21:54 SE 9 14.48 Fair CLR 8.3 -8.3 30% 7 75.79 1011.2
07 20:54 NE 7 14.48 Fair CLR 10 -8.3 27% 9 75.77 1010.6
07 19:54 N 11 12.87 Fair CLR 11.1 -6.1 30% 75.74 1010.5
07 18:54 NW 19 14.48 Fair CLR 13.3 -8.9 13.9 11.1 21% 75.74 1010.5
07 17:54 NW 20 G 39 12.87 Fair CLR 13.9 -8.9 20% 75.77 1010.7
07 16:54 NW 17 G 39 16.09 Fair CLR 13.9 -8.9 20% 75.77 1010.8
07 15:54 Calm 16.09 Fair CLR 13.9 -7.8 22% 75.77 1010.8
07 14:54 W 11 G 35 16.09 A Few Clouds FEW003 12.8 -8.3 22% 75.79 1011.2
07 13:54 NW 19 G 37 16.09 A Few Clouds FEW002 12.2 -8.9 22% 75.82 1011.5
07 12:54 NW 28 G 39 6.44 Fair CLR 11.7 -7.2 11.7 2.8 26% 75.84 1012.1
07 11:54 NW 15 9.66 Fair CLR 10.6 -5.6 32% 75.87 1012.4
07 10:54 Calm 12.87 Fair CLR 9.4 -3.9 39% 75.9 1012.7
07 09:54 N 13 14.48 Fair CLR 7.8 -3.9 44% 6 75.92 1013.1
Date Time (cdt) Wind (kph) Vis. (km) Weather Sky Cond. Air Dwpt Max. Min. Relative Humidity Wind Chill (°C) Heat Index (°C) altimeter (cm) sea level (mb) 1 hr 3 hr 6 hr
6 hour
Temperature (ºC) Pressure Precipitation (cm)